createdAt,value
2022-11-29T00:00:08.988Z,81.52
2022-11-29T00:05:10.054Z,81.87
2022-11-29T00:10:09.363Z,80.64
2022-11-29T00:15:06.233Z,81.34
2022-11-29T00:20:03.116Z,81.87
2022-11-29T00:25:00.613Z,81.91
2022-11-29T00:29:57.262Z,81.20
2022-11-29T00:34:53.966Z,80.48
2022-11-29T00:39:50.752Z,79.78
2022-11-29T00:44:48.506Z,80.38
2022-11-29T00:49:45.115Z,80.77
2022-11-29T00:54:45.056Z,81.42
2022-11-29T00:59:42.021Z,80.28
2022-11-29T01:04:39.262Z,80.68
2022-11-29T01:09:37.267Z,79.58
2022-11-29T01:14:34.021Z,79.52
2022-11-29T01:19:30.637Z,78.86
2022-11-29T01:24:29.171Z,78.37
2022-11-29T01:29:25.885Z,78.94
2022-11-29T01:34:25.055Z,79.05
2022-11-29T01:39:21.629Z,78.57
2022-11-29T01:44:37.178Z,78.90
2022-11-29T01:49:39.023Z,80.53
2022-11-29T01:54:39.077Z,79.92
2022-11-29T01:59:37.154Z,80.38
2022-11-29T02:04:35.471Z,80.34
2022-11-29T02:09:32.043Z,79.65
2022-11-29T02:14:43.703Z,79.01
2022-11-29T02:19:53.259Z,79.39
2022-11-29T02:24:57.524Z,80.38
2022-11-29T02:30:12.239Z,81.21
2022-11-29T02:35:19.158Z,80.68
2022-11-29T02:40:34.786Z,80.82
2022-11-29T02:45:39.490Z,80.83
2022-11-29T02:50:41.832Z,80.32
2022-11-29T02:55:42.006Z,80.50
2022-11-29T03:00:42.012Z,80.82
2022-11-29T03:05:44.186Z,82.07
2022-11-29T03:10:50.917Z,81.87
2022-11-29T03:15:52.855Z,83.54
2022-11-29T03:20:57.788Z,83.94
2022-11-29T03:26:02.091Z,84.86
2022-11-29T03:31:01.524Z,85.58
2022-11-29T03:36:01.728Z,86.91
2022-11-29T03:41:05.248Z,86.71
2022-11-29T03:46:05.624Z,87.28
2022-11-29T03:51:05.700Z,85.79
2022-11-29T03:56:04.943Z,86.66
2022-11-29T04:01:18.988Z,85.49
2022-11-29T04:06:31.843Z,85.53
2022-11-29T04:12:01.560Z,86.80
2022-11-29T04:17:17.652Z,85.78
2022-11-29T04:22:27.932Z,84.63
2022-11-29T04:27:41.701Z,83.59
2022-11-29T04:32:49.889Z,84.74
2022-11-29T04:37:57.888Z,84.45
2022-11-29T04:43:06.230Z,86.56
2022-11-29T04:48:10.283Z,85.75
2022-11-29T04:53:21.753Z,85.34
2022-11-29T04:58:22.805Z,86.75
2022-11-29T05:03:25.357Z,85.84
2022-11-29T05:08:27.622Z,85.80
2022-11-29T05:13:29.176Z,84.21
2022-11-29T05:18:32.495Z,83.42
2022-11-29T05:23:33.429Z,86.08
2022-11-29T05:28:35.427Z,87.02
2022-11-29T05:33:47.800Z,86.28
2022-11-29T05:38:55.497Z,85.08
2022-11-29T05:43:59.173Z,84.12
2022-11-29T05:49:00.680Z,82.89
2022-11-29T05:54:05.480Z,83.13
2022-11-29T05:59:04.786Z,82.47
2022-11-29T06:04:04.319Z,82.16
2022-11-29T06:09:05.897Z,83.10
2022-11-29T06:14:05.433Z,82.86
2022-11-29T06:19:20.056Z,83.51
2022-11-29T06:24:26.535Z,83.10
2022-11-29T06:29:27.869Z,83.04
2022-11-29T06:34:42.735Z,83.14
2022-11-29T06:39:40.576Z,83.31
2022-11-29T06:44:37.957Z,83.38
2022-11-29T06:49:39.023Z,82.28
2022-11-29T06:54:45.398Z,82.70
2022-11-29T06:59:51.249Z,83.04
2022-11-29T07:04:56.462Z,82.52
2022-11-29T07:09:58.060Z,83.06
2022-11-29T07:14:56.089Z,82.54
2022-11-29T07:20:00.277Z,84.49
2022-11-29T07:25:00.481Z,83.48
2022-11-29T07:30:17.851Z,83.29
2022-11-29T07:35:17.173Z,83.00
2022-11-29T07:40:15.215Z,84.63
2022-11-29T07:45:16.728Z,82.50
2022-11-29T07:50:13.929Z,83.77
2022-11-29T07:55:18.325Z,84.41
2022-11-29T08:00:17.297Z,84.69
2022-11-29T08:05:14.199Z,85.00
2022-11-29T08:10:12.187Z,84.92
2022-11-29T08:15:09.792Z,84.96
2022-11-29T08:20:08.803Z,85.50
2022-11-29T08:25:06.678Z,86.22
2022-11-29T08:30:03.449Z,85.42
2022-11-29T08:35:00.221Z,86.16
2022-11-29T08:39:58.517Z,86.54
2022-11-29T08:44:55.310Z,85.80
2022-11-29T08:50:01.261Z,86.35
2022-11-29T08:55:03.020Z,84.67
2022-11-29T09:00:02.153Z,85.87
2022-11-29T09:04:58.823Z,85.96
2022-11-29T09:09:55.539Z,85.99
2022-11-29T09:14:52.993Z,86.83
2022-11-29T09:19:52.172Z,85.56
2022-11-29T09:24:48.852Z,84.86
2022-11-29T09:29:45.452Z,86.22
2022-11-29T09:34:45.620Z,84.79
2022-11-29T09:39:44.970Z,83.74
2022-11-29T09:44:47.955Z,84.71
2022-11-29T09:49:56.881Z,84.29
2022-11-29T09:54:57.222Z,84.43
2022-11-29T09:59:56.253Z,83.84
2022-11-29T10:04:54.772Z,84.69
2022-11-29T10:09:56.648Z,83.89
2022-11-29T10:14:54.876Z,84.41
2022-11-29T10:19:55.119Z,85.34
2022-11-29T10:24:57.092Z,87.23
2022-11-29T10:29:54.090Z,87.89
2022-11-29T10:34:51.448Z,88.22
2022-11-29T10:39:49.516Z,87.46
2022-11-29T10:44:47.188Z,87.75
2022-11-29T10:49:44.456Z,87.60
2022-11-29T10:54:43.945Z,87.55
2022-11-29T10:59:42.592Z,89.26
2022-11-29T11:04:45.236Z,89.20
2022-11-29T11:09:47.310Z,90.11
2022-11-29T11:14:50.776Z,89.73
2022-11-29T11:19:54.433Z,90.18
2022-11-29T11:24:56.979Z,90.69
2022-11-29T11:29:54.103Z,90.87
2022-11-29T11:34:51.322Z,91.40
2022-11-29T11:39:49.726Z,92.74
2022-11-29T11:44:50.243Z,92.49
2022-11-29T11:49:48.931Z,93.63
2022-11-29T11:54:46.844Z,94.71
2022-11-29T11:59:47.497Z,94.77
2022-11-29T12:04:44.516Z,93.22
2022-11-29T12:09:47.599Z,93.69
2022-11-29T12:14:53.468Z,93.98
2022-11-29T12:19:58.159Z,93.58
2022-11-29T12:24:57.841Z,93.00
2022-11-29T12:29:56.449Z,92.97
2022-11-29T12:35:01.509Z,93.20
2022-11-29T12:40:06.806Z,91.38
2022-11-29T12:45:17.272Z,92.88
2022-11-29T12:50:19.328Z,93.10
2022-11-29T12:55:19.979Z,93.41
2022-11-29T13:00:18.823Z,94.21
2022-11-29T13:05:19.941Z,93.89
2022-11-29T13:10:27.036Z,93.73
2022-11-29T13:15:28.296Z,93.27
2022-11-29T13:20:38.961Z,93.58
2022-11-29T13:25:37.467Z,95.54
2022-11-29T13:30:35.711Z,94.03
2022-11-29T13:35:38.468Z,94.86
2022-11-29T13:40:37.428Z,95.48
2022-11-29T13:45:37.438Z,96.14
2022-11-29T13:50:38.819Z,94.40
2022-11-29T13:55:43.826Z,93.65
2022-11-29T14:00:50.079Z,94.01
2022-11-29T14:05:47.821Z,94.02
2022-11-29T14:10:48.313Z,97.42
2022-11-29T14:15:54.075Z,96.58
2022-11-29T14:20:58.169Z,96.66
2022-11-29T14:26:14.008Z,95.37
2022-11-29T14:31:11.164Z,94.28
2022-11-29T14:36:25.500Z,93.37
2022-11-29T14:41:27.427Z,95.13
2022-11-29T14:46:29.390Z,95.16
2022-11-29T14:51:28.734Z,96.77
2022-11-29T14:56:43.209Z,96.25
2022-11-29T15:01:43.657Z,99.05
2022-11-29T15:06:47.498Z,96.71
2022-11-29T15:11:54.976Z,96.70
2022-11-29T15:16:57.736Z,98.03
2022-11-29T15:22:00.755Z,98.12
2022-11-29T15:26:58.132Z,96.41
2022-11-29T15:31:58.782Z,97.05
2022-11-29T15:36:56.431Z,98.00
2022-11-29T15:41:54.046Z,97.33
2022-11-29T15:46:53.598Z,99.41
2022-11-29T15:51:51.408Z,100.00
2022-11-29T15:56:51.944Z,100.00
2022-11-29T16:01:49.600Z,99.30
2022-11-29T16:06:47.460Z,99.46
2022-11-29T16:11:45.336Z,100.00
2022-11-29T16:16:43.936Z,99.90
2022-11-29T16:21:43.721Z,100.00
2022-11-29T16:26:42.492Z,100.00
2022-11-29T16:31:41.849Z,100.00
2022-11-29T16:36:41.742Z,100.00
2022-11-29T16:41:38.715Z,100.00
2022-11-29T16:46:36.652Z,100.00
2022-11-29T16:51:39.409Z,100.00
2022-11-29T16:56:39.410Z,100.00
2022-11-29T17:01:37.135Z,100.00
2022-11-29T17:06:34.696Z,100.00
2022-11-29T17:11:31.448Z,100.00
2022-11-29T17:16:29.117Z,100.00
2022-11-29T17:21:34.844Z,100.00
2022-11-29T17:26:34.188Z,100.00
2022-11-29T17:31:31.897Z,100.00
2022-11-29T17:36:29.138Z,100.00
2022-11-29T17:41:27.635Z,100.00
2022-11-29T17:46:31.173Z,100.00
2022-11-29T17:51:51.074Z,100.00
2022-11-29T17:56:48.679Z,100.00
2022-11-29T18:01:47.495Z,100.00
2022-11-29T18:06:49.254Z,100.00
2022-11-29T18:11:49.406Z,100.00
2022-11-29T18:16:47.038Z,100.00
2022-11-29T18:21:43.897Z,100.00
2022-11-29T18:26:42.053Z,100.00
2022-11-29T18:31:43.044Z,100.00
2022-11-29T18:36:44.091Z,100.00
2022-11-29T18:41:54.981Z,100.00
2022-11-29T18:46:57.886Z,100.00
2022-11-29T18:52:04.670Z,100.00
2022-11-29T18:57:05.282Z,100.00
2022-11-29T19:02:02.998Z,100.00
2022-11-29T19:06:59.897Z,100.00
2022-11-29T19:11:57.984Z,100.00
2022-11-29T19:17:07.367Z,100.00
2022-11-29T19:22:04.210Z,100.00
2022-11-29T19:27:02.622Z,100.00
2022-11-29T19:32:01.673Z,100.00
2022-11-29T19:36:58.585Z,100.00
2022-11-29T19:41:56.058Z,100.00
2022-11-29T19:47:02.044Z,100.00
2022-11-29T19:52:00.485Z,100.00
2022-11-29T19:56:58.177Z,100.00
2022-11-29T20:01:55.505Z,100.00
2022-11-29T20:06:54.698Z,100.00
2022-11-29T20:11:52.065Z,100.00
2022-11-29T20:16:48.834Z,100.00
2022-11-29T20:21:47.271Z,100.00
2022-11-29T20:26:45.625Z,100.00
2022-11-29T20:31:49.908Z,100.00
2022-11-29T20:37:00.435Z,100.00
2022-11-29T20:42:11.404Z,100.00
2022-11-29T20:47:12.700Z,100.00
2022-11-29T20:52:14.012Z,100.00
2022-11-29T20:57:13.570Z,100.00
2022-11-29T21:02:11.127Z,100.00
2022-11-29T21:07:08.028Z,100.00
2022-11-29T21:12:05.151Z,100.00
2022-11-29T21:17:02.981Z,100.00
2022-11-29T21:22:04.894Z,100.00
2022-11-29T21:27:02.558Z,100.00
2022-11-29T21:32:01.559Z,100.00
2022-11-29T21:37:00.087Z,100.00
2022-11-29T21:41:57.485Z,100.00
2022-11-29T21:46:54.177Z,100.00
2022-11-29T21:51:50.988Z,100.00
2022-11-29T21:56:47.767Z,100.00
2022-11-29T22:01:55.619Z,100.00
2022-11-29T22:06:52.441Z,100.00
2022-11-29T22:11:49.270Z,100.00
2022-11-29T22:16:48.004Z,100.00
2022-11-29T22:21:45.557Z,100.00
2022-11-29T22:26:43.118Z,100.00
2022-11-29T22:31:40.360Z,100.00
2022-11-29T22:36:38.248Z,100.00
2022-11-29T22:41:35.432Z,100.00
2022-11-29T22:46:32.618Z,100.00
2022-11-29T22:51:30.555Z,100.00
2022-11-29T22:56:29.309Z,100.00
2022-11-29T23:01:28.360Z,100.00
2022-11-29T23:06:25.958Z,100.00
2022-11-29T23:11:24.231Z,100.00
2022-11-29T23:16:22.490Z,100.00
2022-11-29T23:21:20.709Z,100.00
2022-11-29T23:26:18.842Z,100.00
2022-11-29T23:31:15.930Z,100.00
2022-11-29T23:36:13.810Z,100.00
2022-11-29T23:41:11.384Z,100.00
2022-11-29T23:46:09.024Z,100.00
2022-11-29T23:51:05.864Z,100.00
2022-11-29T23:56:07.241Z,100.00
